UCSB Student Dorm Boxes, California
Current Conditions -  °F | °C
As of 4:53 AM on Saturday 25 Oct 2014 (Local Time) from KSBA Reporting Station
Clear Clear  
Wind Chill: 55°   Ceiling: Unl
Heat Index: 55°   Visibility: 10mi
Dew Point: 51°   Wind: 3mph
Humidity: 86%   Direction: 60°ENE
Pressure: 29.99"   Gusts: NA
Location:  34.4564°N, 119.867°W
Report Text: KSBA 251153Z AUTO 06003KT 10SM CLR 13/11 A2999 RMK AO2 SLP156 T01280106 10144 20100 56006
Loading
Personal Weather Stations






























Interactive Weather Map
Tropical Storm Tracking
New forecast layout! Learn more

10-Day Weather Forecast

Advertisements
Track Severe Weather on mobile